createdAt,value
2018-12-05T00:00:21.443Z,99.90
2018-12-05T00:02:50.044Z,99.90
2018-12-05T00:05:18.682Z,99.90
2018-12-05T00:07:47.267Z,99.90
2018-12-05T00:10:15.879Z,99.90
2018-12-05T00:12:44.476Z,99.90
2018-12-05T00:15:13.213Z,99.90
2018-12-05T00:17:41.788Z,99.90
2018-12-05T00:20:10.384Z,99.90
2018-12-05T00:22:38.959Z,99.90
2018-12-05T00:25:07.591Z,99.90
2018-12-05T00:27:36.179Z,99.90
2018-12-05T00:30:05.712Z,99.90
2018-12-05T00:32:34.298Z,99.90
2018-12-05T00:35:03.299Z,99.90
2018-12-05T00:37:31.948Z,99.90
2018-12-05T00:40:00.556Z,99.90
2018-12-05T00:42:29.134Z,99.90
2018-12-05T00:44:57.742Z,99.90
2018-12-05T00:47:26.314Z,99.90
2018-12-05T00:49:54.914Z,99.90
2018-12-05T00:52:23.508Z,99.90
2018-12-05T00:54:52.247Z,99.90
2018-12-05T00:57:20.820Z,99.90
2018-12-05T00:59:49.431Z,99.90
2018-12-05T01:02:18.015Z,99.90
2018-12-05T01:04:46.627Z,99.90
2018-12-05T01:07:15.217Z,99.90
2018-12-05T01:09:43.828Z,99.90
2018-12-05T01:12:12.672Z,99.90
2018-12-05T01:14:41.281Z,99.90
2018-12-05T01:17:09.863Z,99.90
2018-12-05T01:19:38.478Z,99.90
2018-12-05T01:22:07.095Z,99.90
2018-12-05T01:24:35.680Z,99.90
2018-12-05T01:27:04.283Z,99.90
2018-12-05T01:29:32.902Z,99.90
2018-12-05T01:32:01.476Z,99.90
2018-12-05T01:34:30.107Z,99.90
2018-12-05T01:36:58.872Z,99.90
2018-12-05T01:39:27.470Z,99.90
2018-12-05T01:41:56.043Z,99.90
2018-12-05T01:44:24.647Z,99.90
2018-12-05T01:46:53.228Z,99.90
2018-12-05T01:49:21.840Z,99.90
2018-12-05T01:51:50.496Z,99.90
2018-12-05T01:54:19.107Z,99.90
2018-12-05T01:56:47.691Z,99.90
2018-12-05T01:59:16.427Z,99.90
2018-12-05T02:01:45.001Z,99.90
2018-12-05T02:04:13.651Z,99.90
2018-12-05T02:06:42.276Z,99.90
2018-12-05T02:09:10.861Z,99.90
2018-12-05T02:11:39.524Z,99.90
2018-12-05T02:14:08.124Z,99.90
2018-12-05T02:16:36.735Z,99.90
2018-12-05T02:19:05.576Z,99.90
2018-12-05T02:21:34.191Z,99.90
2018-12-05T02:24:02.848Z,99.90
2018-12-05T02:26:31.416Z,99.90
2018-12-05T02:29:00.006Z,99.90
2018-12-05T02:31:28.603Z,99.90
2018-12-05T02:33:57.201Z,99.90
2018-12-05T02:36:25.799Z,99.90
2018-12-05T02:38:54.440Z,99.90
2018-12-05T02:41:23.014Z,99.90
2018-12-05T02:43:51.740Z,99.90
2018-12-05T02:46:20.337Z,99.90
2018-12-05T02:48:48.958Z,99.90
2018-12-05T02:51:17.536Z,99.90
2018-12-05T02:53:46.132Z,99.90
2018-12-05T02:56:14.950Z,99.90
2018-12-05T02:58:43.553Z,99.90
2018-12-05T03:01:12.279Z,99.90
2018-12-05T03:03:40.902Z,99.90
2018-12-05T03:06:09.489Z,99.90
2018-12-05T03:08:38.089Z,99.90
2018-12-05T03:11:06.711Z,99.90
2018-12-05T03:13:35.339Z,99.90
2018-12-05T03:16:03.918Z,99.90
2018-12-05T03:18:32.511Z,99.90
2018-12-05T03:21:07.672Z,99.90
2018-12-05T03:23:36.296Z,99.90
2018-12-05T03:26:04.884Z,99.90
2018-12-05T03:28:33.480Z,99.90
2018-12-05T03:31:02.080Z,99.90
2018-12-05T03:33:30.786Z,99.90
2018-12-05T03:35:59.380Z,99.90
2018-12-05T03:38:28.048Z,99.90
2018-12-05T03:40:56.644Z,99.90
2018-12-05T03:43:25.246Z,99.90
2018-12-05T03:45:53.834Z,99.90
2018-12-05T03:48:22.446Z,99.90
2018-12-05T03:50:51.028Z,99.90
2018-12-05T03:53:19.641Z,99.90
2018-12-05T03:55:48.300Z,99.90
2018-12-05T03:58:16.910Z,99.90
2018-12-05T04:00:45.489Z,99.90
2018-12-05T04:03:14.107Z,99.90
2018-12-05T04:05:42.716Z,99.90
2018-12-05T04:08:11.324Z,99.90
2018-12-05T04:10:39.908Z,99.90
2018-12-05T04:13:08.502Z,99.90
2018-12-05T04:15:37.325Z,99.90
2018-12-05T04:18:05.955Z,99.90
2018-12-05T04:20:34.536Z,99.90
2018-12-05T04:23:03.139Z,99.90
2018-12-05T04:25:31.716Z,99.90
2018-12-05T04:28:00.318Z,99.90
2018-12-05T04:30:28.898Z,99.90
2018-12-05T04:32:57.517Z,99.90
2018-12-05T04:35:26.098Z,99.90
2018-12-05T04:37:54.753Z,99.90
2018-12-05T04:40:23.345Z,99.90
2018-12-05T04:42:51.960Z,99.90
2018-12-05T04:45:20.885Z,99.90
2018-12-05T04:47:49.689Z,99.90
2018-12-05T04:50:18.352Z,99.90
2018-12-05T04:52:47.020Z,99.90
2018-12-05T04:55:15.672Z,99.90
2018-12-05T04:57:44.348Z,99.90
2018-12-05T05:00:13.179Z,99.90
2018-12-05T05:02:41.864Z,99.90
2018-12-05T05:05:10.524Z,99.90
2018-12-05T05:07:39.171Z,99.90
2018-12-05T05:10:07.873Z,99.90
2018-12-05T05:12:36.525Z,99.90
2018-12-05T05:15:05.353Z,99.90
2018-12-05T05:17:34.064Z,99.90
2018-12-05T05:20:02.820Z,99.90
2018-12-05T05:22:31.580Z,99.90
2018-12-05T05:25:00.243Z,99.90
2018-12-05T05:27:28.934Z,99.90
2018-12-05T05:29:57.693Z,99.90
2018-12-05T05:32:26.404Z,99.90
2018-12-05T05:34:55.160Z,99.90
2018-12-05T05:37:24.012Z,99.90
2018-12-05T05:39:52.662Z,99.90
2018-12-05T05:42:21.357Z,99.90
2018-12-05T05:44:50.161Z,99.90
2018-12-05T05:47:18.771Z,99.90
2018-12-05T05:49:47.452Z,99.90
2018-12-05T05:52:22.647Z,99.90
2018-12-05T05:54:51.229Z,99.90
2018-12-05T05:57:19.821Z,99.90
2018-12-05T05:59:48.877Z,99.90
2018-12-05T06:02:17.950Z,99.90
2018-12-05T06:04:51.660Z,99.90
2018-12-05T06:07:20.276Z,99.90
2018-12-05T06:09:48.862Z,99.90
2018-12-05T06:12:17.483Z,99.90
2018-12-05T06:14:46.060Z,99.90
2018-12-05T06:17:17.515Z,99.90
2018-12-05T06:19:46.101Z,99.90
2018-12-05T06:22:14.724Z,99.90
2018-12-05T06:24:43.319Z,99.90
2018-12-05T06:27:11.927Z,99.90
2018-12-05T06:29:40.528Z,99.90
2018-12-05T06:32:09.144Z,99.90
2018-12-05T06:34:37.753Z,99.90
2018-12-05T06:37:06.365Z,99.90
2018-12-05T06:39:34.964Z,99.90
2018-12-05T06:42:03.572Z,99.90
2018-12-05T06:44:32.144Z,99.90
2018-12-05T06:47:00.742Z,99.90
2018-12-05T06:49:29.316Z,99.90
2018-12-05T06:51:57.960Z,99.90
2018-12-05T06:54:26.532Z,99.90
2018-12-05T06:56:55.135Z,99.90
2018-12-05T06:59:23.707Z,99.90
2018-12-05T07:01:52.309Z,99.90
2018-12-05T07:04:20.919Z,99.90
2018-12-05T07:06:49.532Z,99.90
2018-12-05T07:09:18.117Z,99.90
2018-12-05T07:11:53.235Z,99.90
2018-12-05T07:14:21.852Z,99.90
2018-12-05T07:16:57.168Z,99.90
2018-12-05T07:19:25.736Z,99.90
2018-12-05T07:21:54.332Z,99.90
2018-12-05T07:24:22.947Z,99.90
2018-12-05T07:26:51.706Z,99.90
2018-12-05T07:29:20.295Z,99.90
2018-12-05T07:31:48.927Z,99.90
2018-12-05T07:34:17.533Z,99.90
2018-12-05T07:36:46.148Z,99.90
2018-12-05T07:39:14.756Z,99.90
2018-12-05T07:41:43.384Z,99.90
2018-12-05T07:44:11.967Z,99.90
2018-12-05T07:46:40.582Z,99.90
2018-12-05T07:49:09.193Z,99.90
2018-12-05T07:51:37.824Z,99.90
2018-12-05T07:54:06.425Z,99.90
2018-12-05T07:56:35.024Z,99.90
2018-12-05T07:59:04.644Z,99.90
2018-12-05T08:01:33.251Z,99.90
2018-12-05T08:04:01.859Z,99.90
2018-12-05T08:06:30.454Z,99.90
2018-12-05T08:08:59.034Z,99.90
2018-12-05T08:11:27.643Z,99.90
2018-12-05T08:13:56.243Z,99.90
2018-12-05T08:16:24.864Z,99.90
2018-12-05T08:18:53.442Z,99.30
2018-12-05T08:21:22.060Z,99.20
2018-12-05T08:23:50.624Z,99.20
2018-12-05T08:26:19.231Z,98.90
2018-12-05T08:28:47.864Z,98.50
2018-12-05T08:31:16.477Z,98.60
2018-12-05T08:33:45.072Z,99.00
2018-12-05T08:36:13.670Z,99.00
2018-12-05T08:38:42.264Z,99.00
2018-12-05T08:41:10.855Z,99.00
2018-12-05T08:43:39.435Z,99.00
2018-12-05T08:46:08.039Z,98.90
2018-12-05T08:48:36.615Z,99.00
2018-12-05T08:51:05.377Z,98.90
2018-12-05T08:53:33.936Z,99.00
2018-12-05T08:56:02.551Z,99.00
2018-12-05T08:58:31.121Z,98.80
2018-12-05T09:00:59.731Z,99.00
2018-12-05T09:03:28.318Z,98.10
2018-12-05T09:05:56.939Z,98.00
2018-12-05T09:08:25.507Z,97.80
2018-12-05T09:10:54.105Z,97.60
2018-12-05T09:13:22.704Z,97.80
2018-12-05T09:15:51.316Z,97.70
2018-12-05T09:18:19.890Z,97.90
2018-12-05T09:20:48.486Z,98.00
2018-12-05T09:23:17.064Z,97.50
2018-12-05T09:25:45.631Z,97.80
2018-12-05T09:28:14.215Z,97.90
2018-12-05T09:30:42.794Z,97.80
2018-12-05T09:33:11.379Z,97.30
2018-12-05T09:35:39.985Z,97.70
2018-12-05T09:38:08.601Z,97.40
2018-12-05T09:40:37.215Z,97.00
2018-12-05T09:43:05.818Z,97.20
2018-12-05T09:45:34.451Z,97.30
2018-12-05T09:48:03.063Z,97.30
2018-12-05T09:50:31.685Z,97.40
2018-12-05T09:53:00.247Z,97.20
2018-12-05T09:55:28.869Z,96.90
2018-12-05T09:57:57.456Z,96.80
2018-12-05T10:00:26.059Z,97.10
2018-12-05T10:02:54.668Z,96.90
2018-12-05T10:05:23.264Z,96.60
2018-12-05T10:07:51.819Z,96.60
2018-12-05T10:10:20.428Z,96.80
2018-12-05T10:12:48.983Z,96.60
2018-12-05T10:15:17.600Z,96.30
2018-12-05T10:17:46.161Z,95.90
2018-12-05T10:20:14.743Z,96.10
2018-12-05T10:22:43.320Z,96.00
2018-12-05T10:25:11.934Z,96.10
2018-12-05T10:27:40.512Z,95.70
2018-12-05T10:30:10.032Z,95.50
2018-12-05T10:32:38.588Z,95.40
2018-12-05T10:35:07.235Z,95.30
2018-12-05T10:37:35.810Z,95.30
2018-12-05T10:40:04.864Z,95.60
2018-12-05T10:42:33.492Z,95.50
2018-12-05T10:45:02.083Z,95.70
2018-12-05T10:47:30.670Z,95.80
2018-12-05T10:49:59.245Z,95.90
2018-12-05T10:52:27.948Z,95.80
2018-12-05T10:54:56.544Z,95.90
2018-12-05T10:57:25.116Z,95.70
2018-12-05T10:59:53.714Z,95.50
2018-12-05T11:02:27.527Z,95.70
2018-12-05T11:05:01.571Z,95.70
2018-12-05T11:08:35.811Z,95.40
2018-12-05T11:11:09.737Z,95.60
2018-12-05T11:13:43.589Z,95.40
2018-12-05T11:17:16.863Z,95.50
2018-12-05T11:19:50.715Z,95.90
2018-12-05T11:22:24.512Z,96.00
2018-12-05T11:24:57.382Z,95.80
2018-12-05T11:27:26.176Z,96.20
2018-12-05T11:29:54.744Z,95.60
2018-12-05T11:32:23.364Z,95.40
2018-12-05T11:34:51.945Z,95.70
2018-12-05T11:37:20.539Z,95.50
2018-12-05T11:39:49.143Z,95.50
2018-12-05T11:42:17.716Z,95.60
2018-12-05T11:44:46.321Z,95.60
2018-12-05T11:47:14.888Z,95.30
2018-12-05T11:49:50.099Z,95.20
2018-12-05T11:52:18.721Z,95.20
2018-12-05T11:54:47.286Z,95.20
2018-12-05T11:57:15.884Z,95.00
2018-12-05T11:59:44.585Z,95.10
2018-12-05T12:02:13.202Z,94.80
2018-12-05T12:04:52.772Z,95.00
2018-12-05T12:07:21.368Z,94.60
2018-12-05T12:09:49.941Z,94.50
2018-12-05T12:12:23.744Z,94.60
2018-12-05T12:14:52.308Z,94.70
2018-12-05T12:17:21.033Z,94.70
2018-12-05T12:19:49.681Z,94.60
2018-12-05T12:22:18.288Z,94.60
2018-12-05T12:24:46.913Z,94.50
2018-12-05T12:27:15.515Z,94.30
2018-12-05T12:29:44.134Z,94.80
2018-12-05T12:32:12.696Z,94.90
2018-12-05T12:34:41.280Z,94.50
2018-12-05T12:37:09.856Z,94.50
2018-12-05T12:39:38.476Z,94.60
2018-12-05T12:42:07.069Z,94.60
2018-12-05T12:44:35.664Z,94.60
2018-12-05T12:47:04.471Z,93.90
2018-12-05T12:49:33.062Z,94.00
2018-12-05T12:52:01.696Z,93.80
2018-12-05T12:54:30.291Z,93.90
2018-12-05T12:56:58.849Z,93.80
2018-12-05T12:59:27.461Z,93.80
2018-12-05T13:01:56.026Z,93.70
2018-12-05T13:04:24.609Z,93.80
2018-12-05T13:06:53.180Z,93.40
2018-12-05T13:09:21.787Z,93.50
2018-12-05T13:11:50.776Z,93.70
2018-12-05T13:14:19.369Z,93.90
2018-12-05T13:16:47.951Z,93.70
2018-12-05T13:19:16.558Z,94.40
2018-12-05T13:21:45.145Z,93.80
2018-12-05T13:24:13.744Z,93.70
2018-12-05T13:26:42.303Z,93.70
2018-12-05T13:29:10.912Z,93.80
2018-12-05T13:31:39.488Z,93.90
2018-12-05T13:34:08.088Z,93.30
2018-12-05T13:36:36.657Z,93.60
2018-12-05T13:39:07.355Z,93.80
2018-12-05T13:41:35.970Z,93.50
2018-12-05T13:44:04.665Z,93.70
2018-12-05T13:46:33.232Z,93.50
2018-12-05T13:49:01.841Z,92.70
2018-12-05T13:51:30.421Z,92.80
2018-12-05T13:53:59.004Z,92.90
2018-12-05T13:56:27.581Z,93.20
2018-12-05T13:58:56.172Z,93.10
2018-12-05T14:01:24.757Z,92.60
2018-12-05T14:03:53.351Z,92.70
2018-12-05T14:06:21.929Z,92.60
2018-12-05T14:08:50.512Z,92.80
2018-12-05T14:11:19.073Z,92.90
2018-12-05T14:13:47.656Z,92.70
2018-12-05T14:16:16.219Z,93.00
2018-12-05T14:18:44.805Z,92.80
2018-12-05T14:21:13.379Z,93.20
2018-12-05T14:23:41.971Z,93.10
2018-12-05T14:26:10.544Z,93.50
2018-12-05T14:28:39.120Z,93.00
2018-12-05T14:31:07.709Z,92.80
2018-12-05T14:33:36.300Z,92.90
2018-12-05T14:36:04.871Z,92.60
2018-12-05T14:38:33.489Z,92.90
2018-12-05T14:41:02.097Z,93.10
2018-12-05T14:43:30.927Z,92.90
2018-12-05T14:45:59.489Z,93.40
2018-12-05T14:48:28.084Z,93.10
2018-12-05T14:50:56.652Z,93.10
2018-12-05T14:53:25.263Z,93.20
2018-12-05T14:55:53.807Z,93.00
2018-12-05T14:58:22.383Z,93.30
2018-12-05T15:00:50.948Z,93.20
2018-12-05T15:03:19.539Z,93.20
2018-12-05T15:05:48.130Z,93.20
2018-12-05T15:08:16.726Z,93.20
2018-12-05T15:10:45.279Z,93.00
2018-12-05T15:13:20.451Z,93.50
2018-12-05T15:15:49.024Z,93.80
2018-12-05T15:18:17.624Z,93.50
2018-12-05T15:20:46.185Z,93.60
2018-12-05T15:23:14.773Z,93.70
2018-12-05T15:25:43.337Z,93.90
2018-12-05T15:28:12.021Z,93.50
2018-12-05T15:30:40.735Z,93.90
2018-12-05T15:33:09.331Z,94.10
2018-12-05T15:35:37.910Z,93.90
2018-12-05T15:38:06.516Z,93.70
2018-12-05T15:40:35.108Z,93.70
2018-12-05T15:43:03.726Z,93.80
2018-12-05T15:45:32.296Z,93.60
2018-12-05T15:48:00.893Z,93.70
2018-12-05T15:50:29.596Z,93.70
2018-12-05T15:52:58.177Z,94.50
2018-12-05T15:55:27.447Z,93.80
2018-12-05T15:57:56.189Z,93.50
2018-12-05T16:00:24.788Z,93.70
2018-12-05T16:02:53.421Z,93.70
2018-12-05T16:05:21.995Z,93.80
2018-12-05T16:07:50.605Z,94.00
2018-12-05T16:10:19.201Z,94.00
2018-12-05T16:12:47.803Z,93.90
2018-12-05T16:15:16.360Z,93.90
2018-12-05T16:17:44.961Z,93.60
2018-12-05T16:20:13.525Z,93.80
2018-12-05T16:22:42.112Z,94.00
2018-12-05T16:25:10.699Z,93.80
2018-12-05T16:27:39.288Z,93.70
2018-12-05T16:30:08.672Z,93.60
2018-12-05T16:32:37.268Z,93.80
2018-12-05T16:35:05.992Z,93.80
2018-12-05T16:37:34.609Z,93.70
2018-12-05T16:40:03.577Z,93.90
2018-12-05T16:42:32.156Z,93.80
2018-12-05T16:45:00.753Z,93.80
2018-12-05T16:47:29.368Z,94.00
2018-12-05T16:49:57.946Z,93.90
2018-12-05T16:52:26.675Z,93.90
2018-12-05T16:54:55.697Z,94.00
2018-12-05T16:57:24.298Z,93.60
2018-12-05T16:59:52.872Z,93.50
2018-12-05T17:02:21.490Z,93.50
2018-12-05T17:04:50.064Z,93.70
2018-12-05T17:07:18.653Z,93.80
2018-12-05T17:09:47.215Z,93.80
2018-12-05T17:12:15.811Z,93.70
2018-12-05T17:14:44.396Z,93.70
2018-12-05T17:17:12.983Z,93.80
2018-12-05T17:19:41.587Z,93.70
2018-12-05T17:22:10.193Z,93.80
2018-12-05T17:24:38.761Z,93.70
2018-12-05T17:27:07.508Z,93.70
2018-12-05T17:29:36.094Z,93.80
2018-12-05T17:32:04.876Z,94.10
2018-12-05T17:34:34.759Z,94.20
2018-12-05T17:37:03.494Z,94.30
2018-12-05T17:39:32.092Z,94.20
2018-12-05T17:42:00.702Z,94.10
2018-12-05T17:44:29.285Z,94.30
2018-12-05T17:46:57.903Z,94.50
2018-12-05T17:49:26.493Z,94.60
2018-12-05T17:51:55.146Z,94.60
2018-12-05T17:54:23.745Z,94.50
2018-12-05T17:56:52.344Z,94.70
2018-12-05T17:59:20.933Z,94.80
2018-12-05T18:01:49.569Z,94.50
2018-12-05T18:04:18.139Z,94.50
2018-12-05T18:06:46.735Z,94.50
2018-12-05T18:09:15.312Z,94.60
2018-12-05T18:11:43.917Z,94.70
2018-12-05T18:14:13.328Z,94.80
2018-12-05T18:16:41.943Z,95.00
2018-12-05T18:19:10.574Z,94.80
2018-12-05T18:21:39.276Z,94.90
2018-12-05T18:24:07.909Z,94.90
2018-12-05T18:26:43.219Z,95.00
2018-12-05T18:29:12.263Z,94.90
2018-12-05T18:31:40.944Z,95.00
2018-12-05T18:34:09.525Z,95.10
2018-12-05T18:36:38.147Z,95.10
2018-12-05T18:39:08.068Z,95.00
2018-12-05T18:41:36.676Z,94.80
2018-12-05T18:44:05.409Z,94.80
2018-12-05T18:46:34.033Z,94.60
2018-12-05T18:49:02.964Z,94.70
2018-12-05T18:51:31.580Z,94.70
2018-12-05T18:54:00.188Z,94.80
2018-12-05T18:56:28.809Z,94.80
2018-12-05T18:58:57.401Z,94.80
2018-12-05T19:01:26.146Z,94.80
2018-12-05T19:03:54.726Z,94.80
2018-12-05T19:06:23.316Z,94.50
2018-12-05T19:08:51.901Z,94.50
2018-12-05T19:11:20.834Z,94.60
2018-12-05T19:13:54.899Z,94.60
2018-12-05T19:16:23.825Z,94.50
2018-12-05T19:18:52.415Z,94.60
2018-12-05T19:21:21.053Z,94.60
2018-12-05T19:23:49.624Z,94.80
2018-12-05T19:26:19.381Z,94.50
2018-12-05T19:28:48.048Z,94.50
2018-12-05T19:31:19.460Z,94.10
2018-12-05T19:33:47.288Z,94.30
2018-12-05T19:36:15.916Z,95.00
2018-12-05T19:38:44.507Z,94.00
2018-12-05T19:41:13.136Z,94.00
2018-12-05T19:43:41.755Z,93.30
2018-12-05T19:46:10.354Z,93.20
2018-12-05T19:48:39.893Z,93.40
2018-12-05T19:51:08.677Z,93.50
2018-12-05T19:53:37.288Z,93.30
2018-12-05T19:56:05.891Z,93.20
2018-12-05T19:58:34.482Z,92.90
2018-12-05T20:01:03.608Z,93.10
2018-12-05T20:03:33.820Z,93.60
2018-12-05T20:06:02.531Z,93.30
2018-12-05T20:08:31.244Z,93.20
2018-12-05T20:10:59.963Z,93.10
2018-12-05T20:13:28.528Z,93.00
2018-12-05T20:15:57.146Z,92.90
2018-12-05T20:18:25.727Z,92.90
2018-12-05T20:20:54.347Z,93.10
2018-12-05T20:23:22.912Z,93.10
2018-12-05T20:25:51.680Z,93.20
2018-12-05T20:28:20.316Z,93.30
2018-12-05T20:30:48.975Z,93.20
2018-12-05T20:33:17.594Z,93.00
2018-12-05T20:35:46.288Z,92.90
2018-12-05T20:38:15.011Z,92.50
2018-12-05T20:40:43.639Z,92.30
2018-12-05T20:43:12.299Z,92.30
2018-12-05T20:45:40.907Z,92.20
2018-12-05T20:48:09.532Z,92.30
2018-12-05T20:50:38.143Z,92.40
2018-12-05T20:53:06.703Z,92.30
2018-12-05T20:55:35.327Z,92.40
2018-12-05T20:58:04.055Z,92.40
2018-12-05T21:00:32.673Z,92.40
2018-12-05T21:03:01.570Z,92.30
2018-12-05T21:05:30.164Z,92.20
2018-12-05T21:07:58.750Z,92.00
2018-12-05T21:10:27.589Z,92.10
2018-12-05T21:12:56.188Z,92.00
2018-12-05T21:15:24.790Z,92.00
2018-12-05T21:17:53.353Z,92.40
2018-12-05T21:20:21.985Z,92.60
2018-12-05T21:22:50.546Z,92.50
2018-12-05T21:25:19.184Z,92.30
2018-12-05T21:27:47.728Z,92.10
2018-12-05T21:30:16.596Z,91.80
2018-12-05T21:32:45.244Z,92.10
2018-12-05T21:35:13.851Z,92.00
2018-12-05T21:37:42.428Z,92.30
2018-12-05T21:40:11.095Z,92.10
2018-12-05T21:42:39.697Z,91.90
2018-12-05T21:45:08.532Z,92.00
2018-12-05T21:47:37.207Z,91.80
2018-12-05T21:50:06.300Z,91.90
2018-12-05T21:52:34.921Z,91.60
2018-12-05T21:55:04.666Z,92.20
2018-12-05T21:57:33.231Z,91.70
2018-12-05T22:00:02.000Z,91.70
2018-12-05T22:02:30.571Z,91.70
2018-12-05T22:04:59.204Z,91.70
2018-12-05T22:07:27.785Z,91.70
2018-12-05T22:09:56.419Z,91.40
2018-12-05T22:12:24.988Z,91.40
2018-12-05T22:14:53.636Z,91.60
2018-12-05T22:17:22.208Z,91.80
2018-12-05T22:19:50.792Z,91.60
2018-12-05T22:22:19.380Z,91.40
2018-12-05T22:24:47.986Z,91.50
2018-12-05T22:27:16.577Z,91.60
2018-12-05T22:29:45.307Z,91.50
2018-12-05T22:32:13.875Z,91.70
2018-12-05T22:34:42.505Z,91.50
2018-12-05T22:37:11.083Z,91.60
2018-12-05T22:39:39.664Z,91.70
2018-12-05T22:42:08.286Z,91.70
2018-12-05T22:44:36.903Z,91.70
2018-12-05T22:47:05.564Z,91.50
2018-12-05T22:49:34.203Z,91.80
2018-12-05T22:52:03.739Z,91.70
2018-12-05T22:54:32.363Z,91.60
2018-12-05T22:57:11.474Z,91.60
2018-12-05T22:59:40.107Z,91.50
2018-12-05T23:02:08.810Z,91.50
2018-12-05T23:04:37.405Z,91.60
2018-12-05T23:07:06.160Z,91.50
2018-12-05T23:09:34.734Z,91.50
2018-12-05T23:12:03.785Z,91.60
2018-12-05T23:14:32.356Z,91.60
2018-12-05T23:17:01.447Z,91.50
2018-12-05T23:19:30.043Z,91.50
2018-12-05T23:21:58.622Z,91.40
2018-12-05T23:24:27.204Z,91.50
2018-12-05T23:27:26.407Z,91.60
2018-12-05T23:29:54.960Z,91.60
2018-12-05T23:32:23.548Z,91.50
2018-12-05T23:34:52.127Z,91.60
2018-12-05T23:37:20.712Z,91.60
2018-12-05T23:39:49.296Z,91.80
2018-12-05T23:42:17.883Z,91.90
2018-12-05T23:44:46.446Z,91.80
2018-12-05T23:47:15.059Z,91.90
2018-12-05T23:49:43.736Z,91.80
2018-12-05T23:52:12.302Z,91.70
2018-12-05T23:54:40.864Z,91.60
2018-12-05T23:57:09.477Z,91.70
2018-12-05T23:59:38.039Z,91.40
